Time;durP1;ratioP1;P1;durP2;ratioP2;P2;SDS_P1;SDS_P2;PMS_P1;PMS_P2;Temp;Humidity;BMP_temperature;BMP_pressure;BME280_temperature;BME280_humidity;BME280_pressure;Samples;Min_cycle;Max_cycle;Signal;HPM_P1;HPM_P2
2023/11/27 00:00:28;;;;;;;25.90;18.52;;;6.70;99.90;;;;;;5036207;28;20200;-85
2023/11/27 00:02:55;;;;;;;27.02;18.58;;;6.70;99.90;;;;;;5034022;28;20248;-82
2023/11/27 00:05:23;;;;;;;27.83;17.63;;;6.60;99.90;;;;;;5036025;28;20225;-86
2023/11/27 00:07:49;;;;;;;27.40;19.23;;;6.60;99.90;;;;;;5041250;28;20255;-82
2023/11/27 00:10:18;;;;;;;28.88;18.90;;;6.60;99.90;;;;;;5046133;28;20189;-82
2023/11/27 00:12:45;;;;;;;30.95;18.88;;;6.70;99.90;;;;;;5052424;28;20185;-82
2023/11/27 00:15:11;;;;;;;24.17;18.52;;;6.70;99.90;;;;;;5050764;28;20235;-84
2023/11/27 00:17:38;;;;;;;25.75;19.05;;;6.70;99.90;;;;;;5041768;28;20196;-83
2023/11/27 00:20:09;;;;;;;25.90;18.13;;;6.70;99.90;;;;;;5043634;28;20232;-84
2023/11/27 00:22:36;;;;;;;32.80;20.50;;;6.70;99.90;;;;;;5037954;28;20223;-82
2023/11/27 00:25:03;;;;;;;30.17;19.58;;;6.70;99.90;;;;;;5040892;28;20220;-84
2023/11/27 00:27:31;;;;;;;34.85;19.52;;;6.70;99.90;;;;;;5047755;28;20224;-83
2023/11/27 00:29:59;;;;;;;26.92;18.00;;;6.60;99.90;;;;;;5040537;28;20273;-82
2023/11/27 00:32:26;;;;;;;33.95;20.73;;;6.60;99.90;;;;;;5043657;28;20236;-83
2023/11/27 00:34:53;;;;;;;26.30;18.10;;;6.50;99.90;;;;;;5039054;28;20240;-82
2023/11/27 00:37:20;;;;;;;32.58;22.60;;;6.50;99.90;;;;;;5042319;28;20211;-82
2023/11/27 00:39:47;;;;;;;32.88;23.13;;;6.50;99.90;;;;;;5044582;28;20208;-83
2023/11/27 00:42:14;;;;;;;33.30;20.85;;;6.50;99.90;;;;;;5042623;28;20198;-85
2023/11/27 00:44:43;;;;;;;27.07;20.43;;;6.50;99.90;;;;;;5046640;28;20236;-82
2023/11/27 00:47:10;;;;;;;32.67;20.27;;;6.60;99.90;;;;;;5040484;28;20467;-85
2023/11/27 00:49:36;;;;;;;33.25;21.75;;;6.60;99.90;;;;;;5039574;28;20223;-83
2023/11/27 00:52:04;;;;;;;40.78;25.52;;;6.70;99.90;;;;;;5028030;28;20201;-85
2023/11/27 00:54:31;;;;;;;31.77;23.05;;;6.60;99.90;;;;;;5028421;28;20253;-83
2023/11/27 00:56:57;;;;;;;32.05;23.45;;;6.60;99.90;;;;;;5030981;28;20185;-85
2023/11/27 00:59:24;;;;;;;37.15;22.20;;;6.60;99.90;;;;;;5036993;28;20204;-85
2023/11/27 01:01:53;;;;;;;28.17;20.75;;;6.50;99.90;;;;;;5040143;28;20201;-82
2023/11/27 01:04:20;;;;;;;35.88;23.10;;;6.50;99.90;;;;;;5038960;28;20238;-87
2023/11/27 01:06:51;;;;;;;28.33;20.90;;;6.50;99.90;;;;;;5033663;28;20233;-84
2023/11/27 01:09:20;;;;;;;30.50;21.83;;;6.50;99.90;;;;;;5035813;28;20288;-84
2023/11/27 01:11:48;;;;;;;28.33;20.05;;;6.50;99.90;;;;;;5045120;28;20206;-85
2023/11/27 01:14:15;;;;;;;35.25;22.27;;;6.50;99.90;;;;;;5034838;28;20937;-86
2023/11/27 01:16:42;;;;;;;42.72;24.00;;;6.50;99.90;;;;;;5032138;28;20211;-84
2023/11/27 01:19:10;;;;;;;31.63;21.30;;;6.50;99.90;;;;;;5030710;28;20896;-86
2023/11/27 01:21:37;;;;;;;30.88;22.65;;;6.50;99.90;;;;;;5030711;28;20269;-83
2023/11/27 01:24:05;;;;;;;41.53;20.75;;;6.60;99.90;;;;;;5030632;28;20545;-85
2023/11/27 01:26:32;;;;;;;22.55;17.10;;;6.70;99.90;;;;;;5030104;28;20229;-86
2023/11/27 01:29:00;;;;;;;25.88;17.63;;;6.70;99.90;;;;;;5024026;28;20247;-84
2023/11/27 01:31:26;;;;;;;26.92;19.05;;;6.80;99.90;;;;;;5027038;28;20226;-86
2023/11/27 01:33:53;;;;;;;25.13;16.02;;;6.80;99.90;;;;;;5026064;28;20202;-84
2023/11/27 01:36:22;;;;;;;21.20;15.65;;;6.80;99.90;;;;;;5028447;28;20201;-86
2023/11/27 01:38:50;;;;;;;31.15;17.88;;;6.70;99.90;;;;;;5024103;28;20207;-84
2023/11/27 01:41:17;;;;;;;22.73;16.90;;;6.70;99.90;;;;;;5022773;28;20204;-86
2023/11/27 01:43:45;;;;;;;23.83;16.08;;;6.60;99.90;;;;;;5032559;28;20243;-85
2023/11/27 01:46:24;;;;;;;20.98;16.25;;;6.80;99.90;;;;;;5047257;28;20231;-84
2023/11/27 01:48:52;;;;;;;24.10;16.23;;;6.70;99.90;;;;;;5040378;28;20213;-87
2023/11/27 01:51:19;;;;;;;23.63;16.08;;;6.70;99.90;;;;;;5023723;28;20228;-87
2023/11/27 01:53:49;;;;;;;19.80;15.68;;;6.70;99.90;;;;;;5033295;28;20209;-81
2023/11/27 01:56:16;;;;;;;16.85;13.55;;;6.70;99.90;;;;;;5035205;28;20858;-80
2023/11/27 01:58:45;;;;;;;17.23;13.15;;;6.70;99.90;;;;;;5033432;28;20205;-87
2023/11/27 02:01:12;;;;;;;19.65;14.30;;;6.60;99.90;;;;;;5036768;28;20215;-86
2023/11/27 02:03:39;;;;;;;20.65;12.13;;;6.70;99.90;;;;;;5046503;28;20200;-84
2023/11/27 02:06:07;;;;;;;19.65;13.23;;;6.70;99.90;;;;;;5035103;28;20750;-85
2023/11/27 02:08:35;;;;;;;18.13;12.88;;;6.70;99.90;;;;;;5030508;28;20237;-86
2023/11/27 02:11:03;;;;;;;16.27;11.93;;;6.70;99.90;;;;;;5033470;28;20197;-85
2023/11/27 02:13:30;;;;;;;16.13;12.63;;;6.80;99.90;;;;;;5030561;28;20628;-83
2023/11/27 02:15:57;;;;;;;17.95;13.68;;;7.00;99.90;;;;;;5026239;28;20221;-84
2023/11/27 02:18:24;;;;;;;16.65;12.50;;;6.80;99.90;;;;;;5036380;28;20197;-85
2023/11/27 02:20:51;;;;;;;16.02;12.70;;;6.80;99.90;;;;;;5035429;28;20222;-86
2023/11/27 02:23:20;;;;;;;15.82;12.13;;;7.00;99.90;;;;;;5040321;28;20209;-84
2023/11/27 02:25:47;;;;;;;13.05;11.10;;;7.00;99.90;;;;;;5027917;28;20221;-86
2023/11/27 02:28:14;;;;;;;14.77;11.95;;;7.00;99.90;;;;;;5033601;28;20236;-84
2023/11/27 02:30:41;;;;;;;18.95;14.25;;;7.10;99.90;;;;;;5043547;28;20201;-85
2023/11/27 02:33:08;;;;;;;17.95;11.63;;;7.10;99.90;;;;;;5047543;28;20207;-83
2023/11/27 02:35:35;;;;;;;19.27;10.43;;;7.00;99.90;;;;;;5047099;28;20228;-84
2023/11/27 02:38:02;;;;;;;14.52;12.10;;;6.80;99.90;;;;;;5042227;28;20203;-83
2023/11/27 02:40:31;;;;;;;17.60;11.95;;;6.90;99.90;;;;;;5047838;28;20196;-82
2023/11/27 02:42:59;;;;;;;11.23;10.05;;;6.90;99.90;;;;;;5038617;28;20188;-81
2023/11/27 02:45:26;;;;;;;11.98;9.75;;;7.20;99.90;;;;;;5046411;28;20651;-86
2023/11/27 02:47:53;;;;;;;14.77;10.55;;;7.10;99.90;;;;;;5040288;28;20216;-85
2023/11/27 02:50:20;;;;;;;14.95;10.50;;;7.10;99.90;;;;;;5034725;28;20226;-84
2023/11/27 02:52:47;;;;;;;11.60;9.05;;;7.20;99.90;;;;;;5033176;28;20192;-85
2023/11/27 02:55:14;;;;;;;14.95;10.88;;;7.20;99.90;;;;;;5037420;28;20226;-85
2023/11/27 02:57:42;;;;;;;11.60;9.35;;;7.10;99.90;;;;;;5043790;28;20251;-85
2023/11/27 03:00:12;;;;;;;20.38;12.43;;;7.10;99.90;;;;;;5034757;28;20273;-82
2023/11/27 03:02:39;;;;;;;9.70;8.65;;;7.10;99.90;;;;;;5029853;28;20224;-86
2023/11/27 03:05:08;;;;;;;15.25;11.80;;;7.10;99.90;;;;;;5037003;28;20217;-79
2023/11/27 03:07:35;;;;;;;17.63;14.00;;;7.20;99.90;;;;;;5047752;28;20206;-80
2023/11/27 03:10:02;;;;;;;17.02;13.10;;;7.20;99.90;;;;;;5046156;28;20192;-82
2023/11/27 03:12:29;;;;;;;22.52;14.55;;;7.30;99.90;;;;;;5048215;28;20196;-81
2023/11/27 03:14:58;;;;;;;19.95;16.02;;;7.20;99.90;;;;;;5045259;28;20223;-80
2023/11/27 03:17:25;;;;;;;22.13;17.95;;;7.10;99.90;;;;;;5046315;28;20208;-80
2023/11/27 03:19:52;;;;;;;27.00;17.27;;;7.10;99.90;;;;;;5041749;28;20200;-81
2023/11/27 03:22:19;;;;;;;24.35;17.50;;;7.10;99.90;;;;;;5045377;28;20208;-80
2023/11/27 03:24:46;;;;;;;24.35;18.40;;;6.90;99.90;;;;;;5053527;28;20204;-83
2023/11/27 03:27:13;;;;;;;27.40;21.33;;;7.10;99.90;;;;;;5041601;28;20248;-86
2023/11/27 03:29:40;;;;;;;31.15;19.70;;;7.40;99.90;;;;;;5036481;28;20196;-81
2023/11/27 03:32:08;;;;;;;25.73;19.58;;;7.20;99.90;;;;;;5037487;28;20205;-85
2023/11/27 03:34:35;;;;;;;37.63;23.38;;;7.20;99.90;;;;;;5030944;28;20818;-85
2023/11/27 03:37:02;;;;;;;43.63;27.33;;;7.20;99.90;;;;;;5042878;28;20198;-85
2023/11/27 03:39:29;;;;;;;50.97;31.55;;;7.30;99.90;;;;;;5035709;28;20264;-84
2023/11/27 03:41:56;;;;;;;48.42;31.55;;;7.00;99.90;;;;;;5044617;28;20201;-85
2023/11/27 03:44:23;;;;;;;49.72;33.15;;;6.90;99.90;;;;;;5033849;28;20248;-83
2023/11/27 03:46:50;;;;;;;56.10;34.08;;;6.80;99.90;;;;;;5039221;28;20190;-82
2023/11/27 03:49:18;;;;;;;50.53;29.08;;;6.70;99.90;;;;;;5051550;28;20177;-85
2023/11/27 03:51:45;;;;;;;59.42;37.33;;;6.80;99.90;;;;;;5050578;28;20208;-83
2023/11/27 03:54:12;;;;;;;59.20;36.55;;;6.80;99.90;;;;;;5046083;28;20216;-82
2023/11/27 03:56:40;;;;;;;68.30;39.30;;;6.70;99.90;;;;;;5040923;28;20215;-81
2023/11/27 03:59:07;;;;;;;73.13;41.15;;;6.70;99.90;;;;;;5052486;28;20235;-81
2023/11/27 04:01:34;;;;;;;85.13;40.67;;;6.80;99.90;;;;;;5040701;28;20295;-82
2023/11/27 04:04:01;;;;;;;77.28;40.20;;;6.50;99.90;;;;;;5055336;28;20181;-81
2023/11/27 04:06:31;;;;;;;67.93;41.45;;;6.60;99.90;;;;;;5050950;28;20193;-83
2023/11/27 04:08:58;;;;;;;69.40;39.90;;;6.40;99.90;;;;;;5047635;28;20248;-85
2023/11/27 04:11:27;;;;;;;80.38;42.72;;;6.40;99.90;;;;;;5053704;28;20265;-84
2023/11/27 04:13:54;;;;;;;67.55;39.50;;;6.40;99.90;;;;;;5051930;28;20224;-84
2023/11/27 04:16:22;;;;;;;71.38;42.67;;;6.30;99.90;;;;;;5049460;28;20269;-84
2023/11/27 04:18:49;;;;;;;72.85;42.75;;;6.40;99.90;;;;;;5045032;28;20243;-83
2023/11/27 04:21:17;;;;;;;71.87;41.33;;;6.40;99.90;;;;;;5045148;28;20201;-85
2023/11/27 04:23:47;;;;;;;70.13;42.00;;;6.50;99.90;;;;;;5046973;28;20447;-82
2023/11/27 04:26:14;;;;;;;76.47;41.03;;;6.40;99.90;;;;;;5046024;28;20209;-83
2023/11/27 04:28:41;;;;;;;69.97;41.83;;;6.40;99.90;;;;;;5050076;28;20239;-85
2023/11/27 04:31:09;;;;;;;73.43;42.10;;;6.30;99.90;;;;;;5022930;28;20293;-84
2023/11/27 04:33:36;;;;;;;63.50;39.10;;;6.40;99.90;;;;;;5024510;28;20222;-84
2023/11/27 04:36:04;;;;;;;66.60;41.80;;;6.40;99.90;;;;;;5028666;28;20224;-83
2023/11/27 04:38:31;;;;;;;70.10;41.58;;;6.40;99.90;;;;;;5021404;28;20197;-83
2023/11/27 04:40:59;;;;;;;81.05;45.33;;;6.30;99.90;;;;;;5021706;28;20204;-82
2023/11/27 04:43:26;;;;;;;73.85;41.67;;;6.20;99.90;;;;;;5022880;28;20201;-82
2023/11/27 04:45:53;;;;;;;66.47;42.60;;;6.20;99.90;;;;;;5033468;28;20230;-82
2023/11/27 04:48:21;;;;;;;79.45;42.55;;;6.30;99.90;;;;;;5038442;28;20221;-83
2023/11/27 04:50:48;;;;;;;63.28;38.55;;;6.40;99.90;;;;;;5029423;28;20197;-83
2023/11/27 04:53:16;;;;;;;63.13;40.17;;;6.40;99.90;;;;;;5038705;28;20205;-83
2023/11/27 04:55:43;;;;;;;62.42;37.67;;;6.50;99.90;;;;;;5025527;28;20255;-84
2023/11/27 04:58:11;;;;;;;63.42;38.97;;;6.50;99.90;;;;;;5028821;28;20189;-83
2023/11/27 05:00:38;;;;;;;57.72;39.38;;;6.60;99.90;;;;;;5020345;28;20205;-83
2023/11/27 05:03:05;;;;;;;56.88;38.05;;;6.70;99.90;;;;;;5041347;28;20235;-83
2023/11/27 05:05:32;;;;;;;55.80;37.13;;;6.60;99.90;;;;;;5045135;28;20228;-83
2023/11/27 05:07:58;;;;;;;55.95;37.20;;;6.70;99.90;;;;;;5042280;28;20221;-83
2023/11/27 05:10:28;;;;;;;66.55;38.20;;;6.90;99.90;;;;;;5033945;28;20246;-83
2023/11/27 05:12:54;;;;;;;57.60;38.05;;;6.70;99.90;;;;;;5041430;28;20200;-82
2023/11/27 05:15:23;;;;;;;58.55;36.72;;;6.70;99.90;;;;;;5033715;28;20217;-81
2023/11/27 05:17:51;;;;;;;64.15;39.33;;;6.60;99.90;;;;;;5033042;28;20202;-82
2023/11/27 05:20:18;;;;;;;44.53;32.83;;;6.60;99.90;;;;;;5036962;28;20231;-82
2023/11/27 05:22:45;;;;;;;57.13;36.55;;;6.60;99.90;;;;;;5043437;28;20454;-83
2023/11/27 05:25:12;;;;;;;56.67;37.35;;;6.70;99.90;;;;;;5046787;28;20227;-82
2023/11/27 05:27:40;;;;;;;56.47;34.00;;;6.80;99.90;;;;;;5043854;28;20228;-82
2023/11/27 05:30:08;;;;;;;48.42;31.27;;;6.80;99.90;;;;;;5039460;28;20235;-84
2023/11/27 05:32:37;;;;;;;58.17;35.33;;;6.80;99.90;;;;;;5040994;28;20195;-84
2023/11/27 05:35:05;;;;;;;57.63;33.90;;;6.80;99.90;;;;;;5035520;28;20259;-83
2023/11/27 05:37:32;;;;;;;51.28;32.95;;;6.80;99.90;;;;;;5047466;28;20219;-83
2023/11/27 05:39:59;;;;;;;45.13;29.83;;;6.80;99.90;;;;;;5042169;28;20235;-83
2023/11/27 05:42:27;;;;;;;44.55;30.35;;;6.80;99.90;;;;;;5032030;28;20211;-84
2023/11/27 05:44:59;;;;;;;54.85;38.05;;;6.90;99.90;;;;;;5033131;28;20227;-83
2023/11/27 05:47:26;;;;;;;41.70;30.58;;;6.70;99.90;;;;;;5028965;28;20210;-84
2023/11/27 05:49:54;;;;;;;42.95;29.27;;;6.70;99.90;;;;;;5023303;28;20208;-83
2023/11/27 05:52:21;;;;;;;39.50;28.83;;;6.70;99.90;;;;;;5041052;28;20639;-84
2023/11/27 05:54:48;;;;;;;35.67;26.27;;;6.70;99.90;;;;;;5030493;28;20217;-83
2023/11/27 05:57:15;;;;;;;47.83;28.38;;;6.70;99.90;;;;;;5033220;28;20228;-84
2023/11/27 05:59:42;;;;;;;43.13;29.92;;;6.70;99.90;;;;;;5028398;28;20205;-83
2023/11/27 06:02:09;;;;;;;39.47;27.13;;;6.70;99.90;;;;;;5020166;28;20213;-84
2023/11/27 06:04:36;;;;;;;43.42;29.83;;;6.80;99.90;;;;;;5031703;28;20713;-84
2023/11/27 06:07:05;;;;;;;35.42;26.38;;;6.80;99.90;;;;;;5026929;28;20330;-85
2023/11/27 06:09:32;;;;;;;41.65;29.02;;;6.80;99.90;;;;;;5029287;28;20699;-87
2023/11/27 06:11:59;;;;;;;47.42;30.15;;;6.80;99.90;;;;;;5034754;28;20655;-83
2023/11/27 06:14:26;;;;;;;49.40;32.38;;;6.90;99.90;;;;;;5030222;28;20232;-83
2023/11/27 06:16:53;;;;;;;43.67;31.70;;;6.70;99.90;;;;;;5025862;28;20211;-83
2023/11/27 06:19:20;;;;;;;49.45;31.88;;;6.80;99.90;;;;;;5029142;28;20452;-84
2023/11/27 06:21:47;;;;;;;39.75;27.90;;;6.70;99.90;;;;;;5038486;28;20270;-83
2023/11/27 06:24:15;;;;;;;38.05;28.50;;;6.70;99.90;;;;;;5026719;28;20331;-83
2023/11/27 06:26:42;;;;;;;52.45;32.72;;;6.60;99.90;;;;;;5029178;28;20266;-82
2023/11/27 06:29:09;;;;;;;41.80;28.15;;;6.60;99.90;;;;;;5023217;28;20217;-83
2023/11/27 06:31:36;;;;;;;38.08;27.25;;;6.50;99.90;;;;;;5036102;28;20220;-83
2023/11/27 06:34:03;;;;;;;37.95;26.58;;;6.50;99.90;;;;;;5024560;28;20205;-82
2023/11/27 06:36:30;;;;;;;38.28;28.33;;;6.50;99.90;;;;;;5028456;28;20233;-84
2023/11/27 06:38:57;;;;;;;46.17;32.33;;;6.50;99.90;;;;;;5032755;28;20193;-85
2023/11/27 06:41:26;;;;;;;45.38;29.27;;;6.50;99.90;;;;;;5038578;28;20208;-82
2023/11/27 06:43:53;;;;;;;42.95;30.38;;;6.50;99.90;;;;;;5042463;28;20621;-83
2023/11/27 06:46:20;;;;;;;41.75;29.70;;;6.50;99.90;;;;;;5030738;28;20209;-83
2023/11/27 06:48:47;;;;;;;39.03;31.05;;;6.40;99.90;;;;;;5035823;28;20642;-83
2023/11/27 06:51:14;;;;;;;48.72;30.27;;;6.40;99.90;;;;;;5037935;28;20207;-81
2023/11/27 06:53:40;;;;;;;38.70;27.35;;;6.40;99.90;;;;;;5033820;28;20205;-81
2023/11/27 06:56:09;;;;;;;50.60;29.63;;;6.40;99.90;;;;;;5032957;28;20239;-82
2023/11/27 06:58:38;;;;;;;40.72;27.98;;;6.30;99.90;;;;;;5033213;28;20197;-82
2023/11/27 07:01:09;;;;;;;36.10;27.23;;;6.50;99.90;;;;;;5027859;28;20205;-83
2023/11/27 07:03:36;;;;;;;36.03;25.90;;;6.30;99.90;;;;;;5036179;28;20215;-83
2023/11/27 07:06:05;;;;;;;37.10;26.10;;;6.30;99.90;;;;;;5032769;28;20229;-83
2023/11/27 07:08:34;;;;;;;31.33;22.65;;;6.40;99.90;;;;;;5037331;28;20517;-85
2023/11/27 07:11:13;;;;;;;28.02;22.85;;;6.30;99.90;;;;;;5039596;28;20204;-84
2023/11/27 07:13:42;;;;;;;33.57;25.80;;;6.40;99.90;;;;;;5019432;28;20233;-84
2023/11/27 07:16:09;;;;;;;37.05;26.58;;;6.10;99.90;;;;;;5020618;28;20456;-84
2023/11/27 07:18:36;;;;;;;36.60;25.35;;;6.20;99.90;;;;;;5032235;28;20207;-82
2023/11/27 07:21:04;;;;;;;33.83;24.45;;;6.20;99.90;;;;;;5030588;28;20220;-84
2023/11/27 07:23:31;;;;;;;33.17;24.20;;;6.10;99.90;;;;;;5030948;28;20205;-83
2023/11/27 07:25:58;;;;;;;36.08;24.25;;;6.20;99.90;;;;;;5037199;28;20231;-82
2023/11/27 07:28:26;;;;;;;32.95;22.13;;;6.30;99.90;;;;;;5038212;28;20216;-82
2023/11/27 07:30:56;;;;;;;28.45;21.40;;;6.10;99.90;;;;;;5037870;28;20208;-83
2023/11/27 07:33:24;;;;;;;29.20;22.88;;;6.30;99.90;;;;;;5030163;28;20233;-83
2023/11/27 07:35:51;;;;;;;36.88;24.92;;;6.30;99.90;;;;;;5038338;28;20228;-83
2023/11/27 07:38:18;;;;;;;34.65;26.20;;;6.20;99.90;;;;;;5038026;28;20211;-84
2023/11/27 07:40:45;;;;;;;40.03;28.52;;;6.20;99.90;;;;;;5043168;28;20207;-84
2023/11/27 07:43:12;;;;;;;42.17;27.95;;;6.10;99.90;;;;;;5031145;28;20204;-84
2023/11/27 07:45:39;;;;;;;45.47;28.92;;;6.20;99.90;;;;;;5032229;28;20252;-85
2023/11/27 07:48:07;;;;;;;40.00;29.05;;;6.20;99.90;;;;;;5030244;28;20269;-85
2023/11/27 07:50:35;;;;;;;36.95;25.80;;;6.30;99.90;;;;;;5026819;28;20212;-82
2023/11/27 07:53:03;;;;;;;41.65;31.60;;;6.30;99.90;;;;;;5040064;28;20209;-85
2023/11/27 07:55:35;;;;;;;36.22;28.02;;;6.20;99.90;;;;;;5025296;28;20224;-83
2023/11/27 07:58:02;;;;;;;44.17;30.00;;;6.10;99.90;;;;;;5031590;28;20189;-83
2023/11/27 08:00:29;;;;;;;40.65;28.60;;;6.10;99.90;;;;;;5044699;28;20200;-83
2023/11/27 08:02:56;;;;;;;44.38;30.00;;;6.10;99.90;;;;;;5040407;28;20223;-83
2023/11/27 08:05:27;;;;;;;45.33;31.23;;;6.20;99.90;;;;;;5039840;28;20230;-83
2023/11/27 08:07:54;;;;;;;41.60;30.10;;;6.10;99.90;;;;;;5036211;28;20692;-83
2023/11/27 08:10:21;;;;;;;52.05;34.35;;;6.10;99.90;;;;;;5032054;28;20228;-84
2023/11/27 08:12:48;;;;;;;58.83;35.53;;;6.20;99.90;;;;;;5037542;28;20197;-84
2023/11/27 08:15:18;;;;;;;48.13;32.85;;;6.10;99.90;;;;;;5032137;28;20232;-82
2023/11/27 08:17:45;;;;;;;47.35;31.67;;;6.10;99.90;;;;;;5035179;28;20208;-83
2023/11/27 08:20:15;;;;;;;54.03;34.95;;;6.10;99.90;;;;;;5039220;28;20269;-82
2023/11/27 08:22:43;;;;;;;47.15;32.67;;;6.00;99.90;;;;;;5030743;28;20260;-84
2023/11/27 08:25:11;;;;;;;50.45;33.78;;;6.00;99.90;;;;;;5034300;28;20351;-85
2023/11/27 08:27:39;;;;;;;41.60;32.38;;;6.10;99.90;;;;;;5036273;28;20268;-83
2023/11/27 08:30:09;;;;;;;41.60;29.80;;;6.00;99.90;;;;;;5037800;28;20232;-87
2023/11/27 08:32:36;;;;;;;41.95;30.33;;;6.00;99.90;;;;;;5035129;28;20213;-85
2023/11/27 08:35:05;;;;;;;40.28;29.35;;;6.00;99.90;;;;;;5043897;28;20283;-86
2023/11/27 08:37:35;;;;;;;51.85;31.90;;;5.90;99.90;;;;;;5033562;28;20204;-86
2023/11/27 08:40:06;;;;;;;54.53;31.40;;;5.90;99.90;;;;;;5030254;28;20683;-83
2023/11/27 08:42:34;;;;;;;42.33;29.02;;;5.80;99.90;;;;;;5031341;28;20205;-85
2023/11/27 08:45:06;;;;;;;40.40;26.85;;;6.00;99.90;;;;;;5040918;28;20231;-86
2023/11/27 08:47:37;;;;;;;41.55;27.52;;;6.00;99.90;;;;;;5040342;28;20213;-83
2023/11/27 08:50:05;;;;;;;40.58;28.33;;;6.00;99.90;;;;;;5034275;28;20218;-82
2023/11/27 08:52:32;;;;;;;46.38;28.23;;;5.90;99.90;;;;;;5027267;28;20348;-82
2023/11/27 08:54:59;;;;;;;28.88;23.50;;;6.00;99.90;;;;;;5038623;28;20224;-83
2023/11/27 08:57:27;;;;;;;39.35;25.70;;;6.00;99.90;;;;;;5032411;28;20208;-82
2023/11/27 08:59:54;;;;;;;32.65;26.65;;;6.00;99.90;;;;;;5031379;28;20213;-84
2023/11/27 09:02:21;;;;;;;36.30;25.75;;;6.00;99.90;;;;;;5034270;28;20205;-84
2023/11/27 09:04:49;;;;;;;32.80;22.15;;;6.00;99.90;;;;;;5032060;28;20236;-83
2023/11/27 09:07:16;;;;;;;33.80;24.48;;;6.10;99.90;;;;;;5035260;28;20280;-86
2023/11/27 09:09:43;;;;;;;33.80;24.30;;;6.00;99.90;;;;;;5041850;28;20215;-84
2023/11/27 09:12:10;;;;;;;30.65;23.40;;;6.00;99.90;;;;;;5026804;28;20236;-82
2023/11/27 09:14:38;;;;;;;28.20;21.67;;;6.00;99.90;;;;;;5029689;28;20706;-83
2023/11/27 09:17:06;;;;;;;30.42;22.17;;;6.00;99.90;;;;;;5037202;28;20247;-80
2023/11/27 09:19:33;;;;;;;26.38;21.20;;;6.10;99.90;;;;;;5037472;28;20208;-80
2023/11/27 09:22:00;;;;;;;23.25;20.67;;;6.10;99.90;;;;;;5039049;28;20204;-84
2023/11/27 09:24:27;;;;;;;26.30;19.58;;;6.30;99.90;;;;;;5035623;28;20251;-83
2023/11/27 09:26:56;;;;;;;24.75;19.63;;;6.20;99.90;;;;;;5033058;28;20212;-85
2023/11/27 09:29:23;;;;;;;23.88;19.77;;;6.10;99.90;;;;;;5032281;28;20232;-82
2023/11/27 09:31:51;;;;;;;24.60;19.37;;;6.10;99.90;;;;;;5043904;28;20236;-83
2023/11/27 09:34:23;;;;;;;29.63;20.60;;;6.20;99.90;;;;;;5036157;28;20791;-81
2023/11/27 09:36:50;;;;;;;25.15;18.98;;;6.20;99.90;;;;;;5044316;28;20478;-85
2023/11/27 09:39:17;;;;;;;33.28;22.17;;;6.30;99.90;;;;;;5038989;28;20256;-84
2023/11/27 09:41:44;;;;;;;29.63;21.60;;;6.10;99.90;;;;;;5028178;28;20208;-84
2023/11/27 09:44:13;;;;;;;26.30;20.60;;;6.10;99.90;;;;;;5036821;28;20217;-83
2023/11/27 09:46:42;;;;;;;28.90;21.05;;;6.10;99.90;;;;;;5039062;28;20201;-85
2023/11/27 09:49:16;;;;;;;30.98;20.85;;;6.10;99.90;;;;;;5031289;28;20229;-84
2023/11/27 09:51:46;;;;;;;29.55;19.67;;;6.00;99.90;;;;;;5035742;28;20239;-82
2023/11/27 09:54:14;;;;;;;28.13;21.35;;;6.00;99.90;;;;;;5037110;28;20337;-81
2023/11/27 09:56:42;;;;;;;25.50;18.90;;;6.00;99.90;;;;;;5037783;28;20222;-82
2023/11/27 09:59:09;;;;;;;23.35;17.85;;;6.00;99.90;;;;;;5039238;28;20215;-85
2023/11/27 10:01:37;;;;;;;24.83;18.15;;;6.00;99.90;;;;;;5033903;28;20201;-83
2023/11/27 10:04:08;;;;;;;23.52;15.85;;;5.90;99.90;;;;;;5043437;28;20199;-86
2023/11/27 10:06:41;;;;;;;22.55;17.05;;;5.90;99.90;;;;;;5031782;28;20198;-82
2023/11/27 10:09:09;;;;;;;21.98;16.83;;;5.80;99.90;;;;;;5042968;28;20647;-83
2023/11/27 10:11:36;;;;;;;35.45;16.77;;;5.90;99.90;;;;;;5040321;28;20212;-83
2023/11/27 10:14:05;;;;;;;20.02;15.90;;;5.90;99.90;;;;;;5035735;28;20219;-83
2023/11/27 10:16:32;;;;;;;24.05;15.70;;;5.90;99.90;;;;;;5047030;28;20223;-85
2023/11/27 10:19:05;;;;;;;17.10;12.88;;;5.90;99.90;;;;;;5037809;28;20793;-83
2023/11/27 10:21:33;;;;;;;19.33;14.52;;;6.10;99.90;;;;;;5040320;28;20226;-84
2023/11/27 10:24:03;;;;;;;16.80;12.07;;;6.00;99.90;;;;;;5042895;28;20228;-82
2023/11/27 10:26:30;;;;;;;14.32;12.63;;;5.90;99.90;;;;;;5030791;28;20202;-82
2023/11/27 10:28:58;;;;;;;14.57;13.07;;;5.90;99.90;;;;;;5037407;28;20225;-84
2023/11/27 10:31:26;;;;;;;14.65;13.15;;;6.00;99.90;;;;;;5042395;28;20234;-85
2023/11/27 10:33:53;;;;;;;17.85;13.88;;;5.90;99.90;;;;;;5042315;28;20225;-81
2023/11/27 10:36:23;;;;;;;19.63;15.07;;;5.90;99.90;;;;;;5042835;28;20213;-80
2023/11/27 10:39:04;;;;;;;16.38;13.27;;;5.90;99.90;;;;;;5035278;28;20228;-84
2023/11/27 10:41:31;;;;;;;18.67;15.00;;;5.90;99.90;;;;;;5043133;28;20199;-82
2023/11/27 10:43:59;;;;;;;21.17;14.73;;;5.90;99.90;;;;;;5035145;28;20203;-84
2023/11/27 10:46:29;;;;;;;18.65;14.20;;;5.90;99.90;;;;;;5034407;28;20301;-84
2023/11/27 10:49:01;;;;;;;18.10;13.70;;;6.00;99.90;;;;;;5039872;28;20235;-84
2023/11/27 10:51:31;;;;;;;18.88;14.88;;;5.80;99.90;;;;;;5039386;28;20225;-84
2023/11/27 10:54:00;;;;;;;14.13;11.23;;;6.10;99.90;;;;;;5034878;28;20201;-83
2023/11/27 10:56:31;;;;;;;14.77;12.68;;;5.90;99.90;;;;;;5031827;28;20220;-82
2023/11/27 10:59:05;;;;;;;14.32;12.05;;;5.90;99.90;;;;;;5043723;28;20875;-82
2023/11/27 11:01:37;;;;;;;19.27;12.50;;;5.90;99.90;;;;;;5044257;28;20287;-83
2023/11/27 11:04:11;;;;;;;20.02;15.52;;;5.80;99.90;;;;;;5031718;28;20232;-81
2023/11/27 11:06:45;;;;;;;16.60;14.63;;;5.80;99.90;;;;;;5042244;28;20201;-82
2023/11/27 11:09:16;;;;;;;18.58;16.05;;;5.90;99.90;;;;;;5045436;28;20234;-83
2023/11/27 11:11:49;;;;;;;18.23;14.30;;;5.80;99.90;;;;;;5034607;28;20193;-82
2023/11/27 11:14:19;;;;;;;16.20;13.82;;;5.80;99.90;;;;;;5045757;28;20262;-84
2023/11/27 11:16:57;;;;;;;22.60;16.92;;;5.80;99.90;;;;;;5036333;28;20205;-83
2023/11/27 11:19:33;;;;;;;14.55;11.38;;;5.80;99.90;;;;;;5030655;28;20201;-82
2023/11/27 11:22:11;;;;;;;13.75;10.90;;;5.90;99.90;;;;;;5035959;28;20264;-82
2023/11/27 11:24:46;;;;;;;12.65;11.20;;;5.70;99.90;;;;;;5030412;28;20704;-82
2023/11/27 11:27:24;;;;;;;13.43;12.02;;;5.70;99.90;;;;;;5030942;28;20212;-83
2023/11/27 11:29:53;;;;;;;14.15;11.95;;;5.40;99.90;;;;;;5037263;28;20220;-83
2023/11/27 11:32:27;;;;;;;16.25;13.50;;;5.60;99.90;;;;;;5035918;28;20228;-83
2023/11/27 11:34:54;;;;;;;17.10;13.55;;;5.70;99.90;;;;;;5034993;28;20325;-85
2023/11/27 11:37:25;;;;;;;19.55;15.65;;;5.80;99.90;;;;;;5035153;28;20215;-82
2023/11/27 11:39:56;;;;;;;18.77;15.05;;;5.80;99.90;;;;;;5039260;28;20197;-81
2023/11/27 11:42:30;;;;;;;20.25;16.58;;;5.80;99.90;;;;;;5042923;28;20212;-82
2023/11/27 11:45:16;;;;;;;20.05;14.65;;;5.80;99.90;;;;;;5042065;28;20280;-82
2023/11/27 11:47:43;;;;;;;18.70;15.18;;;5.70;99.90;;;;;;5039890;28;20223;-82
2023/11/27 11:50:24;;;;;;;18.23;14.65;;;5.80;99.90;;;;;;5044574;28;20211;-81
2023/11/27 11:52:52;;;;;;;20.45;14.95;;;5.70;99.90;;;;;;5040098;28;20196;-82
2023/11/27 11:55:25;;;;;;;19.35;15.20;;;5.80;99.90;;;;;;5044270;28;20256;-81
2023/11/27 11:57:56;;;;;;;21.80;17.23;;;5.80;99.90;;;;;;5039865;28;20189;-82
2023/11/27 12:00:24;;;;;;;18.25;15.30;;;5.80;99.90;;;;;;5041143;28;20239;-83
2023/11/27 12:02:54;;;;;;;19.63;15.45;;;5.70;99.90;;;;;;5048779;28;20368;-81
2023/11/27 12:05:22;;;;;;;15.95;14.13;;;5.80;99.90;;;;;;5042698;28;20515;-80
2023/11/27 12:07:50;;;;;;;20.27;15.23;;;5.80;99.90;;;;;;5048000;28;20220;-81
2023/11/27 12:10:17;;;;;;;17.05;14.40;;;5.80;99.90;;;;;;5044637;28;20225;-82
2023/11/27 12:12:48;;;;;;;22.73;15.02;;;5.80;99.90;;;;;;5039875;28;20229;-82
2023/11/27 12:15:17;;;;;;;17.67;12.90;;;5.80;99.90;;;;;;5037234;28;20228;-83
2023/11/27 12:17:48;;;;;;;14.88;12.88;;;5.80;99.90;;;;;;5027469;28;20224;-82
2023/11/27 12:20:15;;;;;;;20.08;13.90;;;5.60;99.90;;;;;;5033675;28;20236;-83
2023/11/27 12:22:47;;;;;;;19.23;12.60;;;5.50;99.90;;;;;;5033527;28;20275;-82
2023/11/27 12:25:18;;;;;;;17.60;14.25;;;5.50;99.90;;;;;;5037703;28;20229;-83
2023/11/27 12:27:45;;;;;;;17.70;13.82;;;5.50;99.90;;;;;;5029116;28;20206;-83
2023/11/27 12:30:20;;;;;;;14.98;13.32;;;5.60;99.90;;;;;;5040864;28;20221;-82
2023/11/27 12:32:50;;;;;;;16.65;13.30;;;5.60;99.90;;;;;;5036754;28;20522;-81
2023/11/27 12:35:17;;;;;;;12.10;9.75;;;5.60;99.90;;;;;;5037608;28;20300;-83
2023/11/27 12:37:47;;;;;;;11.50;9.23;;;5.60;99.90;;;;;;5041241;28;20201;-82
2023/11/27 12:40:17;;;;;;;10.20;9.18;;;5.40;99.90;;;;;;5038684;28;20205;-83
2023/11/27 12:42:45;;;;;;;14.18;10.50;;;5.40;99.90;;;;;;5030554;28;20197;-83